الصفحة الرئيسية
METAR-TAF:

METAR-TAF

مطار :

نوميا / La Tontouta, نيو كاليدونيا

دائرة عرض: 22-01S, خط طول: 166-13E, ارتفاع: 16 متر

مراقبة الطقس الحالي

تاريخ ووقت الإصدار 28 دقيقة قبل الساعة 15:00UTC
ريح 3 عقدةمن اتجاهات متغيرة
درجة الحرارة 23°درجة مئوية
الرطوبة 78%
ضغط 1010 hPa
الرؤية 10 كم أو أكثر
ملبد بالغيوم على ارتفاع 5000 قدم

METAR: NWWW 231500Z AUTO VRB03KT 9999 OVC050 23/19 Q1010 NOSIG

زمن: 02:28 (15:28 UTC)

توقعات

تاريخ ووقت الإصدار 4ساعات و 28 دقيقة قبل الساعة 11:00UTC
التوقعات صالحة من23 الساعة 12 UTC إلى 24 الساعة 12 UTC
ريح 2 عقدةمن اتجاهات متغيرة
الرؤية 10 كم أو أكثر
غيوم متفرقة على ارتفاع 5000 قدم
أصبح
من 24 الساعة 00 UTC إلى 24 الساعة 02 UTC
ريح 15 عقدة من الجنوب/الجنوب الشرقي
نظرية الاحتمالات 40% :
مؤقت
من 24 الساعة 02 UTC إلى 24 الساعة 08 UTC
غيوم قليلة على ارتفاع 2000 قدم, مزن ركامية عمودية.
زخات من المطر

TAF: NWWW 231100Z 2312/2412 VRB02KT 9999 SCT050 BECMG 2400/2402 15015KT PROB40 TEMPO 2402/2408 SHRA FEW020TCU

أرصاد الطقس والتوقعات من أكثر من 4000 مطار (تقارير الطقس للمطار METAR والتنبؤ بالطقس بالمطارTAF).

المحطات المتاحة هي النقط الصفراء والحمراء على الخريطة.

حرك المؤشر فوق النقطة لمعرفة اسم المحطة.

ثم انقر لمعرفة أرصاد وتوقعات الطقس.

لتغيير الخارطة: اضغط على الأزرار الخضراء مع رمز الصليب الأسود للتكبير. على الزر الأخضر مع شرطة للتصغير، أو على الأسهم الخضراء للخرائط المجاورة.


METAR-TAF: